Time;durP1;ratioP1;P1;durP2;ratioP2;P2;SDS_P1;SDS_P2;PMS_P1;PMS_P2;Temp;Humidity;BMP_temperature;BMP_pressure;BME280_temperature;BME280_humidity;BME280_pressure;Samples;Min_cycle;Max_cycle;Signal;HPM_P1;HPM_P2
2022/12/18 00:02:29;;;;;;;9.55;4.72;;;;;;;19.70;44.86;98074.75;10413299;28;20068;-77
2022/12/18 00:07:49;;;;;;;9.13;4.75;;;;;;;19.69;44.75;98089.34;10424249;28;20048;-77
2022/12/18 00:13:08;;;;;;;11.57;5.18;;;;;;;19.66;44.44;98092.66;10418946;28;20052;-78
2022/12/18 00:18:28;;;;;;;9.68;4.90;;;;;;;19.66;44.60;98078.31;10422857;28;20041;-77
2022/12/18 00:23:49;;;;;;;8.50;4.78;;;;;;;19.63;44.52;98085.13;10423327;28;20052;-78
2022/12/18 00:29:13;;;;;;;7.43;4.88;;;;;;;19.61;44.40;98086.53;10445977;28;20056;-78
2022/12/18 00:34:33;;;;;;;7.60;4.53;;;;;;;19.58;44.07;98114.91;10401789;28;20058;-77
2022/12/18 00:39:52;;;;;;;7.05;4.50;;;;;;;19.55;44.11;98113.63;10377159;28;20049;-78
2022/12/18 00:45:13;;;;;;;7.38;4.60;;;;;;;19.53;43.90;98118.50;10352615;28;20049;-77
2022/12/18 00:50:32;;;;;;;10.05;5.00;;;;;;;19.51;44.00;98115.28;10367733;28;20516;-78
2022/12/18 00:55:53;;;;;;;8.15;4.60;;;;;;;19.50;43.92;98127.22;10394612;28;20116;-80
2022/12/18 01:01:13;;;;;;;10.00;5.10;;;;;;;19.48;43.81;98132.09;10366527;28;20056;-78
2022/12/18 01:06:35;;;;;;;7.85;4.80;;;;;;;19.46;43.83;98134.28;10407229;28;20050;-77
2022/12/18 01:11:54;;;;;;;7.80;4.65;;;;;;;19.43;43.63;98140.28;10361809;28;20053;-78
2022/12/18 01:17:14;;;;;;;11.50;5.15;;;;;;;19.42;43.81;98151.38;10369052;28;20405;-77
2022/12/18 01:22:34;;;;;;;7.93;4.82;;;;;;;19.38;43.64;98143.03;10369043;28;20037;-78
2022/12/18 01:27:54;;;;;;;8.55;4.50;;;;;;;19.36;43.67;98154.13;10366863;28;20104;-77
2022/12/18 01:33:13;;;;;;;7.05;4.30;;;;;;;19.34;43.56;98158.22;10369745;28;20064;-78
2022/12/18 01:38:33;;;;;;;7.55;4.57;;;;;;;19.32;43.38;98158.50;10384702;28;20433;-77
2022/12/18 01:43:57;;;;;;;5.78;4.50;;;;;;;19.30;43.30;98154.50;10406983;28;20050;-78
2022/12/18 01:49:17;;;;;;;6.80;4.40;;;;;;;19.29;43.32;98169.91;10367343;28;20060;-77
2022/12/18 01:54:36;;;;;;;6.45;4.65;;;;;;;19.27;43.53;98174.00;10403402;28;20046;-78
2022/12/18 02:00:00;;;;;;;5.47;4.35;;;;;;;19.23;43.24;98176.47;10397264;28;20054;-77
2022/12/18 02:05:37;;;;;;;7.60;4.65;;;;;;;19.22;43.08;98171.34;10387420;28;20052;-77
2022/12/18 02:11:16;;;;;;;6.40;4.38;;;;;;;19.19;42.96;98166.50;10416149;28;20050;-78
2022/12/18 02:16:49;;;;;;;5.57;4.13;;;;;;;19.16;43.08;98178.69;10402054;28;20076;-77
2022/12/18 02:22:24;;;;;;;6.55;4.60;;;;;;;19.13;43.06;98193.59;10400058;28;20555;-77
2022/12/18 02:27:46;;;;;;;6.45;4.53;;;;;;;19.11;43.14;98190.38;10395034;28;20156;-78
2022/12/18 02:33:08;;;;;;;6.55;4.63;;;;;;;19.10;43.11;98191.47;10386750;28;20050;-77
2022/12/18 02:38:29;;;;;;;6.80;4.45;;;;;;;19.07;43.20;98200.16;10374922;28;20046;-78
2022/12/18 02:44:00;;;;;;;8.20;4.70;;;;;;;19.05;43.08;98198.81;10387548;28;20486;-78
2022/12/18 02:49:36;;;;;;;5.75;4.13;;;;;;;19.03;42.82;98195.59;10381581;28;20100;-78
2022/12/18 02:55:12;;;;;;;6.28;4.63;;;;;;;19.02;42.96;98192.09;10412252;28;20045;-78
2022/12/18 03:00:43;;;;;;;5.80;4.50;;;;;;;19.00;43.01;98199.69;10419387;28;20050;-78
2022/12/18 03:06:30;;;;;;;6.30;4.35;;;;;;;18.96;42.75;98199.44;10405259;28;20513;-79
2022/12/18 03:17:34;;;;;;;5.63;4.55;;;;;;;18.94;42.92;98203.53;10398835;28;20047;-78
2022/12/18 03:22:59;;;;;;;6.72;4.70;;;;;;;18.91;42.90;98210.28;10400977;28;20050;-78
2022/12/18 03:28:21;;;;;;;6.00;4.35;;;;;;;18.89;43.00;98217.88;10385922;28;20050;-78
2022/12/18 03:34:01;;;;;;;5.85;4.75;;;;;;;18.87;42.88;98220.03;10346936;28;20054;-79
2022/12/18 03:39:31;;;;;;;6.75;4.85;;;;;;;18.85;43.02;98210.63;10362624;28;20049;-78
2022/12/18 03:45:15;;;;;;;5.88;4.55;;;;;;;18.83;42.85;98210.91;10399395;28;20049;-79
2022/12/18 03:50:46;;;;;;;5.32;4.45;;;;;;;18.81;42.81;98220.38;10424333;28;20081;-78
2022/12/18 03:56:07;;;;;;;5.80;4.47;;;;;;;18.77;43.01;98215.50;10404722;28;20049;-78
2022/12/18 04:01:34;;;;;;;5.90;4.55;;;;;;;18.75;42.79;98223.09;10386186;28;20046;-78
2022/12/18 04:06:55;;;;;;;7.18;5.22;;;;;;;18.74;42.84;98231.50;10411081;28;20485;-78
2022/12/18 04:12:15;;;;;;;5.65;4.78;;;;;;;18.71;42.87;98229.34;10386127;28;20057;-78
2022/12/18 04:17:36;;;;;;;5.80;4.65;;;;;;;18.70;42.82;98230.44;10384827;28;20041;-78
2022/12/18 04:22:57;;;;;;;6.25;4.88;;;;;;;18.67;42.85;98229.13;10370755;28;20057;-78
2022/12/18 04:28:17;;;;;;;6.82;4.72;;;;;;;18.66;42.78;98246.41;10380118;28;20052;-78
2022/12/18 04:33:37;;;;;;;6.38;4.80;;;;;;;18.64;42.87;98253.16;10403958;28;20112;-78
2022/12/18 04:38:58;;;;;;;5.65;4.47;;;;;;;18.62;42.77;98250.78;10399171;28;20056;-78
2022/12/18 04:44:18;;;;;;;6.18;4.80;;;;;;;18.61;42.79;98245.66;10384921;28;20053;-78
2022/12/18 04:49:38;;;;;;;6.50;4.70;;;;;;;18.60;42.79;98252.91;10403302;28;20053;-78
2022/12/18 04:54:57;;;;;;;6.18;4.40;;;;;;;18.57;42.72;98245.41;10401897;28;20057;-78
2022/12/18 05:00:17;;;;;;;5.10;4.30;;;;;;;18.55;42.96;98251.06;10365657;28;20054;-78
2022/12/18 05:05:36;;;;;;;5.55;4.43;;;;;;;18.53;42.82;98257.84;10407659;28;20054;-78
2022/12/18 05:11:00;;;;;;;5.05;4.28;;;;;;;18.52;42.68;98261.63;10409578;28;20528;-78
2022/12/18 05:16:20;;;;;;;6.15;4.45;;;;;;;18.49;42.74;98279.19;10409677;28;20096;-78
2022/12/18 05:21:39;;;;;;;5.60;4.50;;;;;;;18.47;42.76;98289.47;10369593;28;20054;-78
2022/12/18 05:27:00;;;;;;;5.85;4.10;;;;;;;18.46;42.61;98295.94;10381620;28;20050;-78
2022/12/18 05:32:20;;;;;;;4.13;3.70;;;;;;;18.45;42.60;98298.94;10397936;28;20045;-78
2022/12/18 05:37:39;;;;;;;6.03;4.38;;;;;;;18.42;42.79;98304.88;10398036;28;20049;-78
2022/12/18 05:42:59;;;;;;;4.80;4.05;;;;;;;18.41;42.66;98304.06;10423890;28;20420;-83
2022/12/18 05:48:19;;;;;;;5.22;4.20;;;;;;;18.40;42.57;98307.06;10458203;28;20094;-78
2022/12/18 05:53:39;;;;;;;6.07;4.45;;;;;;;18.37;42.67;98309.22;10433920;28;20049;-78
2022/12/18 05:58:58;;;;;;;4.63;3.97;;;;;;;18.35;42.52;98314.09;10434086;28;20049;-78
2022/12/18 06:04:17;;;;;;;5.32;4.43;;;;;;;18.33;42.66;98313.56;10436642;28;20041;-78
2022/12/18 06:09:38;;;;;;;4.93;3.95;;;;;;;18.33;42.55;98302.78;10453331;28;20057;-78
2022/12/18 06:14:58;;;;;;;6.00;4.40;;;;;;;18.29;42.76;98323.31;10439726;28;20049;-79
2022/12/18 06:20:17;;;;;;;5.30;4.80;;;;;;;18.29;42.48;98325.22;10415211;28;20057;-78
2022/12/18 06:25:39;;;;;;;4.75;4.13;;;;;;;18.27;42.51;98340.84;10422907;28;20060;-78
2022/12/18 06:30:59;;;;;;;4.28;3.72;;;;;;;18.25;42.49;98338.44;10434755;28;20053;-78
2022/12/18 06:36:20;;;;;;;4.75;4.13;;;;;;;18.23;42.44;98329.81;10412052;28;20045;-78
2022/12/18 06:41:40;;;;;;;6.38;4.00;;;;;;;18.22;42.65;98330.09;10456250;28;20386;-79
2022/12/18 06:46:59;;;;;;;7.05;3.97;;;;;;;18.21;42.92;98341.94;10442825;28;20064;-78
2022/12/18 06:52:18;;;;;;;5.80;4.03;;;;;;;18.21;42.68;98363.53;10433863;28;20054;-78
2022/12/18 06:57:38;;;;;;;5.93;4.20;;;;;;;18.21;42.96;98377.84;10453098;28;20041;-79
2022/12/18 07:02:57;;;;;;;4.72;4.03;;;;;;;18.21;43.34;98377.84;10438808;28;20054;-79
2022/12/18 07:08:17;;;;;;;6.05;4.10;;;;;;;18.21;43.66;98396.72;10407915;28;20551;-78
2022/12/18 07:13:37;;;;;;;4.38;3.92;;;;;;;18.23;43.77;98399.94;10412784;28;20062;-78
2022/12/18 07:18:56;;;;;;;4.90;3.63;;;;;;;18.25;43.81;98396.97;10446730;28;20049;-78
2022/12/18 07:24:16;;;;;;;6.60;4.18;;;;;;;18.27;44.08;98405.56;10432230;28;20060;-78
2022/12/18 07:29:36;;;;;;;6.00;4.13;;;;;;;18.29;43.96;98414.22;10420564;28;20053;-77
2022/12/18 07:34:55;;;;;;;4.95;3.88;;;;;;;18.30;44.30;98415.84;10437617;28;20057;-78
2022/12/18 07:40:14;;;;;;;5.85;3.90;;;;;;;18.32;44.13;98424.44;10439039;28;20115;-78
2022/12/18 07:45:34;;;;;;;4.18;3.65;;;;;;;18.34;44.17;98431.19;10424063;28;20415;-78
2022/12/18 07:50:53;;;;;;;4.78;3.83;;;;;;;18.36;44.41;98439.81;10424357;28;20053;-78
2022/12/18 07:56:13;;;;;;;4.40;3.72;;;;;;;18.39;44.62;98441.16;10433071;28;20412;-78
2022/12/18 08:01:33;;;;;;;4.57;3.80;;;;;;;18.41;44.46;98446.28;10445677;28;20045;-77
2022/12/18 08:06:53;;;;;;;4.70;4.00;;;;;;;18.43;44.39;98444.13;10428739;28;20497;-78
2022/12/18 08:12:13;;;;;;;3.78;3.45;;;;;;;18.45;44.63;98447.34;10416340;28;20130;-78
2022/12/18 08:17:32;;;;;;;5.03;3.85;;;;;;;18.49;44.51;98451.09;10442115;28;20076;-79
2022/12/18 08:22:51;;;;;;;5.35;3.90;;;;;;;18.52;44.57;98455.94;10401356;28;20072;-78
2022/12/18 08:28:11;;;;;;;3.78;3.28;;;;;;;18.55;44.41;98452.69;10441622;28;20060;-78
2022/12/18 08:33:31;;;;;;;5.15;3.72;;;;;;;18.60;44.53;98446.47;10438040;28;20175;-79
2022/12/18 08:38:51;;;;;;;8.07;3.50;;;;;;;18.64;44.48;98453.75;10408472;28;20049;-79
2022/12/18 08:49:48;;;;;;;5.22;3.75;;;;;;;18.70;44.50;98455.31;10461540;28;20044;-79
2022/12/18 08:55:09;;;;;;;4.30;3.80;;;;;;;18.75;44.11;98446.38;10455858;28;20049;-80
2022/12/18 09:00:28;;;;;;;17.80;5.50;;;;;;;18.78;43.91;98445.84;10455755;28;20099;-79
2022/12/18 09:05:48;;;;;;;15.63;5.35;;;;;;;18.81;43.91;98441.78;10464517;28;20045;-79
2022/12/18 09:11:21;;;;;;;28.10;10.55;;;;;;;18.85;44.73;98461.75;10441864;28;20056;-79
2022/12/18 09:16:41;;;;;;;23.42;8.43;;;;;;;18.88;45.15;98453.09;10442912;28;20489;-78
2022/12/18 09:22:01;;;;;;;15.60;7.32;;;;;;;18.90;45.09;98453.63;10447017;28;20049;-79
2022/12/18 09:27:20;;;;;;;13.90;6.65;;;;;;;18.93;45.26;98436.84;10421793;28;20045;-78
2022/12/18 09:32:40;;;;;;;15.48;6.28;;;;;;;18.97;45.23;98451.41;10453694;28;20053;-78
2022/12/18 09:37:59;;;;;;;13.15;5.63;;;;;;;19.01;45.69;98435.44;10455612;28;20056;-78
2022/12/18 09:43:26;;;;;;;12.90;5.57;;;;;;;19.04;45.47;98457.31;10456084;28;20053;-77
2022/12/18 09:48:48;;;;;;;17.25;5.93;;;;;;;19.08;45.23;98455.66;10439709;28;20041;-77
2022/12/18 09:54:14;;;;;;;20.40;7.65;;;;;;;19.12;45.34;98477.53;10423803;28;20459;-79
2022/12/18 09:59:39;;;;;;;20.30;8.73;;;;;;;19.17;45.67;98493.72;10460445;28;20419;-78
2022/12/18 10:04:59;;;;;;;33.78;12.32;;;;;;;19.20;46.34;98490.44;10450342;28;20098;-78
2022/12/18 10:10:32;;;;;;;92.38;33.05;;;;;;;19.24;46.87;98506.88;10452833;28;20064;-77
2022/12/18 10:16:46;;;;;;;76.22;31.58;;;;;;;19.25;43.79;98495.81;10468284;28;20045;-79
2022/12/18 10:22:11;;;;;;;95.53;35.00;;;;;;;19.29;46.54;98482.53;10359369;28;20045;-78
2022/12/18 10:27:31;;;;;;;81.60;29.52;;;;;;;19.33;46.24;98470.09;10459687;28;20056;-79
2022/12/18 10:32:51;;;;;;;71.10;25.83;;;;;;;19.38;47.05;98461.91;10455838;28;20053;-79
2022/12/18 10:38:17;;;;;;;69.00;24.75;;;;;;;19.43;46.92;98442.16;10445023;28;20057;-78
2022/12/18 10:43:39;;;;;;;61.05;22.27;;;;;;;19.46;46.53;98436.97;10482766;28;20127;-79
2022/12/18 10:48:58;;;;;;;57.05;21.73;;;;;;;19.49;46.34;98441.84;10491011;28;20045;-78
2022/12/18 10:54:21;;;;;;;59.05;19.80;;;;;;;19.53;46.02;98423.94;10448555;28;20075;-78
2022/12/18 10:59:53;;;;;;;45.60;18.73;;;;;;;19.58;46.07;98422.28;10445301;28;20045;-78
2022/12/18 11:05:24;;;;;;;49.55;17.40;;;;;;;19.61;47.08;98400.91;10462133;28;20409;-78
2022/12/18 11:10:46;;;;;;;42.60;17.63;;;;;;;19.66;47.60;98402.75;10491914;28;20090;-79
2022/12/18 11:16:06;;;;;;;42.13;16.52;;;;;;;19.71;47.80;98395.41;10446351;28;20492;-79
2022/12/18 11:21:25;;;;;;;38.50;16.10;;;;;;;19.78;47.92;98394.28;10458443;28;20049;-79
2022/12/18 11:26:45;;;;;;;42.65;16.48;;;;;;;19.82;48.68;98393.44;10456746;28;20049;-79
2022/12/18 11:32:23;;;;;;;38.20;16.52;;;;;;;19.87;49.21;98397.97;10456799;28;20049;-79
2022/12/18 11:37:48;;;;;;;37.55;16.38;;;;;;;19.90;47.79;98398.19;10460106;28;20566;-78
2022/12/18 11:43:38;;;;;;;43.00;17.98;;;;;;;19.91;46.75;98397.09;10471211;28;20053;-79
2022/12/18 11:48:58;;;;;;;41.20;15.98;;;;;;;19.92;45.23;98398.72;10426713;28;20057;-78
2022/12/18 11:54:18;;;;;;;36.53;17.30;;;;;;;19.95;46.18;98410.84;10462728;28;20049;-79
2022/12/18 11:59:49;;;;;;;31.77;20.45;;;;;;;18.68;35.85;98408.06;10475983;28;20053;-78
2022/12/18 12:05:24;;;;;;;29.98;18.85;;;;;;;19.18;42.52;98400.75;10429551;28;20083;-77
2022/12/18 12:11:11;;;;;;;30.42;17.25;;;;;;;19.49;43.41;98404.00;10446320;28;20045;-78
2022/12/18 12:16:37;;;;;;;32.70;16.33;;;;;;;19.65;44.07;98409.25;10456012;28;20052;-78
2022/12/18 12:22:25;;;;;;;27.90;15.43;;;;;;;19.73;44.22;98419.47;10453289;28;20048;-78
2022/12/18 12:27:48;;;;;;;26.17;15.35;;;;;;;19.78;44.70;98413.19;10470382;28;20045;-78
2022/12/18 12:33:38;;;;;;;26.13;14.48;;;;;;;19.81;43.56;98405.31;10469329;28;20052;-78
2022/12/18 12:39:02;;;;;;;26.50;14.95;;;;;;;19.82;44.15;98417.75;10432992;28;20057;-78
2022/12/18 12:44:44;;;;;;;27.88;14.43;;;;;;;19.83;43.93;98413.94;10415402;28;20042;-78
2022/12/18 12:50:05;;;;;;;26.90;14.82;;;;;;;19.85;44.45;98419.88;10440495;28;20084;-78
2022/12/18 12:55:28;;;;;;;24.08;14.02;;;;;;;19.85;44.23;98428.00;10442004;28;20045;-79
2022/12/18 13:01:12;;;;;;;26.52;13.32;;;;;;;19.86;44.26;98418.81;10449754;28;20048;-79
2022/12/18 13:06:56;;;;;;;23.27;12.88;;;;;;;19.86;44.35;98426.91;10427370;28;20447;-78
2022/12/18 13:18:10;;;;;;;25.52;12.63;;;;;;;19.86;44.90;98434.22;10456589;28;20103;-78
2022/12/18 13:23:36;;;;;;;23.10;12.65;;;;;;;19.86;45.31;98442.34;10421540;28;20056;-78
2022/12/18 13:28:57;;;;;;;25.23;14.80;;;;;;;19.86;43.66;98428.81;10443341;28;20041;-78
2022/12/18 13:34:29;;;;;;;21.02;12.80;;;;;;;19.84;44.02;98426.41;10432765;28;20053;-79
2022/12/18 13:39:48;;;;;;;18.13;11.98;;;;;;;19.83;43.55;98430.19;10482255;28;20049;-77
2022/12/18 13:45:56;;;;;;;20.00;12.30;;;;;;;19.82;43.46;98419.66;10452658;28;20049;-78
2022/12/18 13:51:18;;;;;;;19.92;12.13;;;;;;;19.78;44.15;98422.13;10365397;28;20053;-79
2022/12/18 13:56:43;;;;;;;22.83;12.23;;;;;;;19.76;43.90;98410.81;10471855;28;20154;-78
2022/12/18 14:02:13;;;;;;;19.58;12.25;;;;;;;19.75;44.28;98418.09;10485650;28;20052;-79
2022/12/18 14:07:32;;;;;;;16.30;11.05;;;;;;;19.74;44.14;98423.81;10422112;28;20128;-78
2022/12/18 14:12:56;;;;;;;18.50;11.45;;;;;;;19.73;44.40;98427.59;10442654;28;20049;-78
2022/12/18 14:18:24;;;;;;;18.15;11.07;;;;;;;19.72;44.11;98431.41;10447134;28;20416;-78
2022/12/18 14:23:44;;;;;;;16.90;10.80;;;;;;;19.72;43.93;98442.22;10447080;28;20080;-78
2022/12/18 14:29:24;;;;;;;17.02;11.23;;;;;;;19.69;43.99;98435.44;10430646;28;20053;-78
2022/12/18 14:34:53;;;;;;;15.70;10.48;;;;;;;19.69;44.12;98440.84;10435189;28;20049;-78
2022/12/18 14:40:13;;;;;;;16.58;10.90;;;;;;;19.68;44.06;98441.13;10446458;28;20420;-79
2022/12/18 14:45:34;;;;;;;14.40;10.38;;;;;;;19.67;44.00;98444.91;10460174;28;20041;-78
2022/12/18 14:51:02;;;;;;;16.02;10.40;;;;;;;19.66;43.75;98446.00;10459897;28;20126;-79
2022/12/18 14:56:24;;;;;;;15.40;10.20;;;;;;;19.64;43.97;98437.38;10431744;28;20404;-78
2022/12/18 15:01:56;;;;;;;14.75;9.52;;;;;;;19.62;43.83;98437.69;10433039;28;20071;-78
2022/12/18 15:07:21;;;;;;;14.88;9.88;;;;;;;19.61;43.71;98433.34;10433364;28;20053;-78
2022/12/18 15:12:45;;;;;;;14.73;9.55;;;;;;;19.59;43.97;98434.72;10445982;28;20056;-82
2022/12/18 15:18:07;;;;;;;13.55;9.77;;;;;;;19.56;44.04;98436.91;10445109;28;20102;-79
2022/12/18 15:23:36;;;;;;;14.10;8.55;;;;;;;19.56;43.86;98426.09;10474328;28;20048;-81
2022/12/18 15:28:58;;;;;;;12.85;8.80;;;;;;;19.55;43.68;98418.28;10459581;28;20049;-81
2022/12/18 15:34:22;;;;;;;13.35;8.93;;;;;;;19.53;43.96;98426.66;10442763;28;20065;-79
2022/12/18 15:39:41;;;;;;;15.13;8.82;;;;;;;19.53;44.20;98420.44;10445169;28;20488;-79
2022/12/18 15:45:01;;;;;;;15.38;8.80;;;;;;;19.50;44.32;98419.13;10445377;28;20106;-79
2022/12/18 15:50:20;;;;;;;14.15;8.55;;;;;;;19.51;44.46;98422.63;10457656;28;20057;-78
2022/12/18 16:01:18;;;;;;;12.50;8.05;;;;;;;19.51;44.57;98418.03;10433043;28;20056;-79
2022/12/18 16:06:38;;;;;;;15.77;8.38;;;;;;;19.52;44.43;98414.25;10471868;28;20076;-79
2022/12/18 16:11:59;;;;;;;12.23;8.07;;;;;;;19.52;44.55;98413.41;10429460;28;20057;-79
2022/12/18 16:17:19;;;;;;;14.75;8.50;;;;;;;19.53;44.97;98405.03;10470062;28;20049;-81
2022/12/18 16:22:39;;;;;;;13.88;9.52;;;;;;;19.56;46.14;98411.75;10437639;28;20040;-79
2022/12/18 16:27:58;;;;;;;15.00;9.20;;;;;;;19.59;46.10;98403.09;10431461;28;20053;-79
2022/12/18 16:33:18;;;;;;;14.18;9.57;;;;;;;19.62;45.78;98391.72;10429378;28;20427;-81
2022/12/18 16:38:37;;;;;;;11.73;9.35;;;;;;;19.65;46.13;98406.56;10462931;28;20067;-80
2022/12/18 16:43:57;;;;;;;15.13;9.25;;;;;;;19.65;46.01;98393.03;10461467;28;20103;-79
2022/12/18 16:49:17;;;;;;;12.93;8.52;;;;;;;19.68;45.87;98389.75;10455702;28;20557;-80
2022/12/18 16:54:38;;;;;;;12.50;8.70;;;;;;;19.69;45.84;98391.38;10434665;28;20049;-81
2022/12/18 16:59:58;;;;;;;12.10;8.57;;;;;;;19.69;45.84;98402.19;10428082;28;20044;-81
2022/12/18 17:05:18;;;;;;;10.88;8.15;;;;;;;19.70;46.00;98401.09;10441300;28;20048;-79
2022/12/18 17:10:38;;;;;;;10.30;8.07;;;;;;;19.69;45.75;98411.09;10462842;28;20071;-80
2022/12/18 17:16:05;;;;;;;12.35;8.00;;;;;;;19.71;45.75;98416.22;10447931;28;20080;-80
2022/12/18 17:21:25;;;;;;;13.88;7.95;;;;;;;19.69;45.54;98423.81;10440870;28;20099;-82
2022/12/18 17:26:44;;;;;;;10.65;7.72;;;;;;;19.69;45.54;98423.81;10456177;28;20492;-80
2022/12/18 17:32:04;;;;;;;12.13;8.20;;;;;;;19.68;44.68;98397.84;10440499;28;20053;-80
2022/12/18 17:37:24;;;;;;;11.77;8.23;;;;;;;19.68;44.87;98405.97;10428065;28;20412;-80
2022/12/18 17:42:44;;;;;;;10.68;8.48;;;;;;;19.69;44.44;98423.81;10426956;28;20045;-80
2022/12/18 17:48:05;;;;;;;10.65;8.02;;;;;;;19.68;44.61;98406.78;10424079;28;20061;-81
2022/12/18 17:53:24;;;;;;;10.73;7.88;;;;;;;19.67;44.20;98404.38;10439705;28;20057;-79
2022/12/18 17:58:44;;;;;;;11.23;8.95;;;;;;;19.67;45.02;98393.56;10454481;28;20518;-77
2022/12/18 18:04:04;;;;;;;12.85;8.70;;;;;;;19.66;44.21;98402.75;10442961;28;20056;-81
2022/12/18 18:09:23;;;;;;;11.30;8.80;;;;;;;19.65;44.00;98417.38;10445975;28;20044;-82
2022/12/18 18:14:43;;;;;;;10.70;9.05;;;;;;;19.64;44.07;98413.03;10440119;28;20055;-81
2022/12/18 18:20:03;;;;;;;11.95;9.07;;;;;;;19.61;43.95;98390.09;10439208;28;20462;-78
2022/12/18 18:25:23;;;;;;;13.10;8.75;;;;;;;19.62;43.99;98385.47;10415698;28;20613;-79
2022/12/18 18:30:42;;;;;;;13.05;8.77;;;;;;;19.60;43.92;98376.84;10465936;28;20519;-79
2022/12/18 18:36:02;;;;;;;10.85;8.43;;;;;;;19.58;43.97;98379.03;10455843;28;20412;-78
2022/12/18 18:41:23;;;;;;;11.55;8.70;;;;;;;19.58;44.11;98384.44;10457752;28;20053;-79
2022/12/18 18:46:43;;;;;;;11.60;9.25;;;;;;;19.57;44.07;98394.47;10458627;28;20041;-78
2022/12/18 18:52:03;;;;;;;12.00;9.40;;;;;;;19.54;43.96;98390.44;10457095;28;20052;-78
2022/12/18 18:57:22;;;;;;;11.25;8.93;;;;;;;19.54;43.89;98398.53;10443050;28;20434;-79
2022/12/18 19:02:42;;;;;;;11.30;8.50;;;;;;;19.52;43.75;98406.13;10452395;28;20045;-78
2022/12/18 19:08:01;;;;;;;10.50;8.23;;;;;;;19.52;43.85;98414.25;10437667;28;20096;-78
2022/12/18 19:13:26;;;;;;;11.38;8.30;;;;;;;19.51;44.10;98423.44;10456097;28;20057;-78
2022/12/18 19:18:46;;;;;;;11.25;8.57;;;;;;;19.50;44.86;98402.91;10446331;28;20041;-78
2022/12/18 19:24:06;;;;;;;11.52;9.35;;;;;;;19.48;44.15;98394.28;10471536;28;20052;-78
2022/12/18 19:29:26;;;;;;;11.57;9.07;;;;;;;19.47;44.47;98389.97;10456381;28;20049;-79
2022/12/18 19:34:45;;;;;;;12.23;9.50;;;;;;;19.49;44.62;98384.28;10398507;28;1137274;-78
2022/12/18 19:40:05;;;;;;;11.38;9.60;;;;;;;19.49;44.78;98382.38;10457797;28;20519;-79
2022/12/18 19:45:25;;;;;;;11.95;9.30;;;;;;;19.48;45.00;98394.28;10473285;28;20416;-79
2022/12/18 19:50:45;;;;;;;11.18;9.40;;;;;;;19.49;45.17;98387.78;10443300;28;20061;-79
2022/12/18 19:56:09;;;;;;;13.38;9.88;;;;;;;19.48;45.27;98369.97;10476826;28;20048;-78
2022/12/18 20:01:29;;;;;;;12.80;9.30;;;;;;;19.48;45.74;98353.75;10443699;28;20045;-79
2022/12/18 20:06:51;;;;;;;13.45;9.77;;;;;;;19.48;45.80;98342.94;10471924;28;20049;-78
2022/12/18 20:12:11;;;;;;;13.98;10.20;;;;;;;19.49;45.81;98335.63;10443222;28;20384;-79
2022/12/18 20:17:30;;;;;;;14.75;10.20;;;;;;;19.49;45.91;98330.22;10442954;28;20053;-78
2022/12/18 20:22:50;;;;;;;14.35;9.77;;;;;;;19.48;45.95;98340.22;10435992;28;20086;-78
2022/12/18 20:28:09;;;;;;;14.80;10.23;;;;;;;19.48;46.21;98345.63;10456652;28;20087;-78
2022/12/18 20:33:29;;;;;;;14.15;10.45;;;;;;;19.47;46.08;98357.53;10454807;28;20053;-78
2022/12/18 20:38:52;;;;;;;14.10;9.52;;;;;;;19.45;45.95;98359.72;10449674;28;20124;-78
2022/12/18 20:44:14;;;;;;;15.18;9.40;;;;;;;19.45;46.06;98357.00;10455816;28;20053;-78
2022/12/18 20:49:34;;;;;;;16.13;10.13;;;;;;;19.44;45.93;98339.16;10445341;28;20052;-79
2022/12/18 20:54:53;;;;;;;15.38;9.82;;;;;;;19.44;46.07;98346.47;10441089;28;20053;-78
2022/12/18 21:00:14;;;;;;;13.82;9.40;;;;;;;19.44;46.07;98352.66;10440607;28;20044;-78
2022/12/18 21:05:34;;;;;;;18.98;10.68;;;;;;;19.44;46.31;98357.28;10441067;28;20048;-78
2022/12/18 21:10:53;;;;;;;17.50;10.45;;;;;;;19.44;45.97;98358.06;10426809;28;20510;-78
2022/12/18 21:16:13;;;;;;;17.15;10.18;;;;;;;19.45;45.95;98342.69;10454207;28;20056;-77
2022/12/18 21:21:32;;;;;;;13.02;9.88;;;;;;;19.45;45.94;98329.97;10440039;28;20056;-79
2022/12/18 21:26:53;;;;;;;19.67;10.65;;;;;;;19.45;45.87;98321.88;10456654;28;20074;-79
2022/12/18 21:32:13;;;;;;;15.57;9.95;;;;;;;19.46;46.05;98319.97;10446425;28;20064;-78
2022/12/18 21:37:32;;;;;;;14.32;9.60;;;;;;;19.46;46.18;98328.06;10424251;28;20527;-78
2022/12/18 21:48:30;;;;;;;13.50;9.05;;;;;;;19.44;46.32;98304.03;10447875;28;20100;-79
2022/12/18 21:53:49;;;;;;;13.63;9.80;;;;;;;19.44;46.53;98311.34;10421933;28;20500;-79
2022/12/18 21:59:11;;;;;;;15.50;9.70;;;;;;;19.43;46.83;98312.44;10441009;28;20053;-79
2022/12/18 22:04:31;;;;;;;14.57;9.60;;;;;;;19.41;46.59;98323.53;10452990;28;20045;-79
2022/12/18 22:09:51;;;;;;;15.60;9.70;;;;;;;19.41;46.29;98330.84;10439116;28;20515;-78
2022/12/18 22:15:11;;;;;;;12.23;9.13;;;;;;;19.39;46.24;98319.50;10445956;28;20435;-79
2022/12/18 22:20:31;;;;;;;13.02;8.55;;;;;;;19.38;46.28;98326.00;10460521;28;20056;-78
2022/12/18 22:25:50;;;;;;;13.95;9.40;;;;;;;19.36;46.30;98308.16;10441610;28;20049;-78
2022/12/18 22:31:10;;;;;;;12.48;8.85;;;;;;;19.34;46.25;98296.84;10459799;28;20057;-78
2022/12/18 22:36:35;;;;;;;14.25;8.48;;;;;;;19.34;46.19;98287.94;10421189;28;20087;-78
2022/12/18 22:41:56;;;;;;;10.48;8.20;;;;;;;19.32;46.32;98277.41;10439075;28;20052;-78
2022/12/18 22:47:15;;;;;;;11.25;8.50;;;;;;;19.32;46.13;98277.41;10456427;28;20053;-78
2022/12/18 22:52:35;;;;;;;10.60;8.05;;;;;;;19.30;46.21;98276.09;10459261;28;20053;-79
2022/12/18 22:57:55;;;;;;;9.98;7.80;;;;;;;19.30;45.93;98278.78;10444965;28;20048;-78
2022/12/18 23:03:14;;;;;;;12.98;8.90;;;;;;;19.28;46.06;98275.56;10458509;28;20084;-78
2022/12/18 23:08:34;;;;;;;10.57;7.95;;;;;;;19.26;45.95;98275.03;10458407;28;20465;-79
2022/12/18 23:13:54;;;;;;;12.43;8.43;;;;;;;19.25;46.03;98263.44;10423632;28;20056;-79
2022/12/18 23:19:14;;;;;;;11.35;8.38;;;;;;;19.23;45.95;98264.81;10437076;28;20056;-79
2022/12/18 23:24:33;;;;;;;11.10;7.93;;;;;;;19.22;45.76;98279.41;10441127;28;20102;-78
2022/12/18 23:29:53;;;;;;;10.27;7.57;;;;;;;19.19;45.76;98270.00;10472638;28;20099;-79
2022/12/18 23:35:13;;;;;;;9.90;7.93;;;;;;;19.19;45.83;98258.34;10437646;28;20064;-78
2022/12/18 23:40:32;;;;;;;12.50;7.88;;;;;;;19.18;45.88;98257.56;10439122;28;20045;-79
2022/12/18 23:45:52;;;;;;;10.02;7.97;;;;;;;19.15;45.60;98247.31;10442910;28;20049;-79
2022/12/18 23:51:15;;;;;;;11.88;7.85;;;;;;;19.14;45.73;98246.53;10472356;28;20053;-78
2022/12/18 23:56:34;;;;;;;10.63;7.72;;;;;;;19.12;45.57;98223.59;10443012;28;20107;-79
